Time;durP1;ratioP1;P1;durP2;ratioP2;P2;SDS_P1;SDS_P2;PMS_P1;PMS_P2;Temp;Humidity;BMP_temperature;BMP_pressure;BME280_temperature;BME280_humidity;BME280_pressure;Samples;Min_cycle;Max_cycle;Signal;HPM_P1;HPM_P2
2021/04/25 00:01:16;;;;;;;9.57;4.60;;;;;;;8.46;43.87;98275.09;10418044;28;20048;-78
2021/04/25 00:06:36;;;;;;;8.80;5.03;;;;;;;8.39;43.99;98270.31;10417626;28;20049;-79
2021/04/25 00:11:57;;;;;;;10.30;4.72;;;;;;;8.36;44.51;98258.28;10404106;28;20045;-79
2021/04/25 00:17:18;;;;;;;9.90;4.65;;;;;;;8.36;43.91;98257.53;10403388;28;20056;-79
2021/04/25 00:22:39;;;;;;;7.45;4.45;;;;;;;8.34;44.03;98258.09;10403283;28;20099;-79
2021/04/25 00:27:59;;;;;;;9.13;5.07;;;;;;;8.32;44.29;98250.31;10402988;28;20121;-79
2021/04/25 00:33:19;;;;;;;6.60;4.32;;;;;;;8.30;44.25;98241.06;10402956;28;20037;-79
2021/04/25 00:38:40;;;;;;;8.90;5.43;;;;;;;8.22;44.58;98240.38;10402845;28;20046;-79
2021/04/25 00:44:00;;;;;;;9.32;5.00;;;;;;;8.15;44.46;98238.38;10402399;28;20053;-79
2021/04/25 00:49:21;;;;;;;8.20;5.05;;;;;;;8.14;44.75;98229.31;10402938;28;20041;-79
2021/04/25 00:54:43;;;;;;;10.40;6.00;;;;;;;8.09;45.14;98218.41;10403389;28;20041;-79
2021/04/25 01:00:05;;;;;;;10.48;6.10;;;;;;;8.03;44.99;98230.50;10402710;28;20435;-79
2021/04/25 01:05:26;;;;;;;10.52;6.43;;;;;;;7.89;44.84;98215.38;10402881;28;20060;-79
2021/04/25 01:10:47;;;;;;;10.30;7.47;;;;;;;7.81;45.12;98214.69;10402602;28;20041;-79
2021/04/25 01:16:09;;;;;;;12.20;7.03;;;;;;;7.72;45.31;98218.84;10402636;28;20046;-79
2021/04/25 01:21:29;;;;;;;8.93;5.80;;;;;;;7.63;45.38;98210.38;10402132;28;20049;-79
2021/04/25 01:26:50;;;;;;;9.85;5.47;;;;;;;7.56;45.62;98211.88;10403001;28;20045;-79
2021/04/25 01:32:10;;;;;;;9.55;4.88;;;;;;;7.55;45.60;98209.66;10415683;28;20042;-79
2021/04/25 01:37:31;;;;;;;10.48;4.90;;;;;;;7.46;45.77;98219.34;10402457;28;20045;-79
2021/04/25 01:42:54;;;;;;;7.82;4.10;;;;;;;7.35;45.75;98209.38;10415952;28;20041;-79
2021/04/25 01:48:14;;;;;;;8.75;4.78;;;;;;;7.25;45.89;98221.66;10403487;28;20046;-80
2021/04/25 01:53:35;;;;;;;8.82;4.50;;;;;;;7.14;45.86;98209.66;10402053;28;20045;-78
2021/04/25 01:58:56;;;;;;;9.98;4.00;;;;;;;6.98;46.01;98207.47;10402635;28;20053;-79
2021/04/25 02:04:16;;;;;;;9.10;4.68;;;;;;;6.80;46.25;98209.38;10415869;28;20053;-79
2021/04/25 02:09:37;;;;;;;6.40;4.47;;;;;;;6.69;46.70;98207.72;10402241;28;20542;-79
2021/04/25 02:14:58;;;;;;;10.05;4.60;;;;;;;6.60;46.77;98203.50;10402052;28;20045;-79
2021/04/25 02:20:20;;;;;;;11.90;3.92;;;;;;;6.50;47.06;98194.25;10407116;28;20495;-79
2021/04/25 02:25:41;;;;;;;8.15;4.88;;;;;;;6.43;46.95;98203.31;10409738;28;20053;-79
2021/04/25 02:31:01;;;;;;;11.38;7.18;;;;;;;6.31;47.38;98199.44;10408648;28;20069;-79
2021/04/25 02:36:21;;;;;;;9.15;4.85;;;;;;;6.26;47.17;98200.38;10408753;28;20472;-79
2021/04/25 02:41:42;;;;;;;11.05;4.28;;;;;;;6.20;47.76;98194.28;10408367;28;20041;-79
2021/04/25 02:47:02;;;;;;;9.27;4.70;;;;;;;6.17;47.45;98187.78;10408066;28;20044;-79
2021/04/25 02:52:26;;;;;;;12.82;4.63;;;;;;;6.15;47.88;98195.19;10408712;28;20041;-78
2021/04/25 02:57:46;;;;;;;8.32;4.07;;;;;;;6.12;47.77;98190.75;10408767;28;20476;-79
2021/04/25 03:03:07;;;;;;;8.38;4.53;;;;;;;6.21;47.89;98195.75;10408998;28;20056;-78
2021/04/25 03:08:29;;;;;;;7.00;3.88;;;;;;;6.30;47.96;98195.22;10408153;28;20491;-79
2021/04/25 03:13:50;;;;;;;7.95;3.67;;;;;;;6.28;48.12;98181.91;10408157;28;20107;-79
2021/04/25 03:19:11;;;;;;;7.70;3.63;;;;;;;6.19;48.11;98190.03;10407372;28;20438;-78
2021/04/25 03:24:32;;;;;;;7.65;3.28;;;;;;;6.11;48.20;98186.53;10407396;28;20042;-79
2021/04/25 03:29:53;;;;;;;6.65;3.22;;;;;;;6.02;48.42;98183.00;10405633;28;20042;-79
2021/04/25 03:35:15;;;;;;;8.52;3.40;;;;;;;5.91;48.49;98183.38;10406260;28;20041;-79
2021/04/25 03:40:36;;;;;;;6.65;3.50;;;;;;;5.71;48.66;98175.94;10406335;28;20048;-79
2021/04/25 03:45:56;;;;;;;6.55;3.28;;;;;;;5.54;49.20;98184.00;10405824;28;20038;-79
2021/04/25 03:51:16;;;;;;;8.70;2.80;;;;;;;5.40;48.97;98175.09;10405930;28;20044;-79
2021/04/25 03:56:37;;;;;;;8.70;3.55;;;;;;;5.38;49.41;98167.34;10407111;28;20451;-79
2021/04/25 04:01:58;;;;;;;7.72;3.50;;;;;;;5.30;49.58;98171.38;10406763;28;20111;-79
2021/04/25 04:07:19;;;;;;;7.65;3.70;;;;;;;5.25;49.31;98170.28;10406360;28;20488;-78
2021/04/25 04:12:40;;;;;;;7.20;3.58;;;;;;;5.30;49.26;98168.63;10405612;28;20037;-80
2021/04/25 04:18:00;;;;;;;11.05;3.78;;;;;;;5.34;49.23;98166.97;10406434;28;20049;-80
2021/04/25 04:23:22;;;;;;;7.43;3.70;;;;;;;5.45;49.77;98174.94;10405569;28;20045;-79
2021/04/25 04:28:43;;;;;;;7.75;3.92;;;;;;;5.58;49.48;98178.84;10391957;28;20057;-80
2021/04/25 04:34:03;;;;;;;7.25;3.22;;;;;;;5.73;49.51;98174.06;10405333;28;20072;-79
2021/04/25 04:39:29;;;;;;;7.47;3.10;;;;;;;5.94;49.17;98179.47;10405786;28;20096;-78
2021/04/25 04:44:50;;;;;;;6.80;2.85;;;;;;;6.25;49.00;98171.16;10399107;28;20072;-79
2021/04/25 04:50:11;;;;;;;5.63;2.67;;;;;;;6.64;48.74;98183.69;10378192;28;20042;-78
2021/04/25 04:55:31;;;;;;;11.38;2.80;;;;;;;6.99;48.39;98176.38;10386542;28;20037;-79
2021/04/25 05:00:52;;;;;;;7.30;2.60;;;;;;;7.36;48.11;98171.25;10369039;28;20042;-79
2021/04/25 05:06:14;;;;;;;6.22;2.83;;;;;;;7.82;47.71;98184.88;10376048;28;20038;-79
2021/04/25 05:11:35;;;;;;;5.90;2.80;;;;;;;8.44;47.27;98194.25;10375571;28;20041;-78
2021/04/25 05:16:55;;;;;;;7.00;2.60;;;;;;;9.38;46.59;98191.38;10376704;28;20046;-78
2021/04/25 05:22:15;;;;;;;5.43;2.90;;;;;;;11.50;45.31;98199.59;10376739;28;20057;-79
2021/04/25 05:27:36;;;;;;;3.85;2.55;;;;;;;19.44;45.95;98205.03;10377464;28;20042;-79
2021/04/25 05:32:56;;;;;;;5.30;2.60;;;;;;;26.92;33.58;98207.59;10373500;28;20046;-77
2021/04/25 05:38:17;;;;;;;5.82;2.17;;;;;;;32.01;22.28;98210.59;10386957;28;20053;-79
2021/04/25 05:43:37;;;;;;;4.65;2.20;;;;;;;36.06;14.91;98208.88;10359566;28;20038;-78
2021/04/25 05:48:58;;;;;;;4.22;2.33;;;;;;;39.12;10.75;98205.28;10386538;28;20042;-77
2021/04/25 05:54:18;;;;;;;4.43;1.55;;;;;;;42.21;7.51;98207.88;10349290;28;20046;-78
2021/04/25 05:59:39;;;;;;;4.13;1.88;;;;;;;44.18;5.50;98198.16;10380680;28;20046;-77
2021/04/25 06:04:59;;;;;;;2.90;1.40;;;;;;;44.51;4.65;98206.38;10380050;28;20053;-75
2021/04/25 06:10:21;;;;;;;3.22;1.60;;;;;;;43.49;4.42;98202.28;10366607;28;20049;-78
2021/04/25 06:15:41;;;;;;;2.47;1.50;;;;;;;44.05;4.20;98206.31;10379845;28;20050;-79
2021/04/25 06:21:02;;;;;;;3.58;1.63;;;;;;;44.04;3.74;98204.91;10379846;28;20046;-79
2021/04/25 06:26:22;;;;;;;4.25;2.05;;;;;;;45.01;3.48;98195.88;10379448;28;20045;-78
2021/04/25 06:31:42;;;;;;;3.03;1.80;;;;;;;45.71;3.18;98203.78;10379127;28;20042;-77
2021/04/25 06:37:02;;;;;;;4.07;1.80;;;;;;;46.25;2.84;98195.66;10378916;28;20048;-77
2021/04/25 06:42:23;;;;;;;3.38;1.30;;;;;;;46.09;2.85;98200.44;10378983;28;20515;-78
2021/04/25 06:47:43;;;;;;;3.83;1.75;;;;;;;46.63;2.98;98197.44;10378558;28;20046;-78
2021/04/25 06:53:04;;;;;;;4.45;1.90;;;;;;;45.25;2.76;98198.75;10378307;28;20439;-76
2021/04/25 06:58:25;;;;;;;4.05;1.08;;;;;;;45.97;3.02;98212.38;10392230;28;20112;-79
2021/04/25 07:03:45;;;;;;;3.58;1.70;;;;;;;47.65;2.50;98214.28;10377302;28;20112;-78
2021/04/25 07:09:08;;;;;;;5.57;1.92;;;;;;;42.13;3.29;98228.13;10378109;28;20517;-77
2021/04/25 07:14:29;;;;;;;2.78;1.58;;;;;;;41.14;5.41;98220.53;10391133;28;20046;-76
2021/04/25 07:19:50;;;;;;;5.15;2.08;;;;;;;45.86;3.21;98224.16;10377384;28;20049;-76
2021/04/25 07:25:12;;;;;;;5.05;1.80;;;;;;;48.60;2.10;98229.81;10377300;28;20046;-77
2021/04/25 07:30:32;;;;;;;4.90;1.98;;;;;;;49.06;2.03;98227.63;10390749;28;20045;-79
2021/04/25 07:35:53;;;;;;;7.38;2.22;;;;;;;46.21;2.73;98243.13;10376712;28;20073;-76
2021/04/25 07:41:14;;;;;;;4.03;2.13;;;;;;;43.12;3.33;98242.53;10376164;28;20042;-76
2021/04/25 07:46:34;;;;;;;3.95;2.50;;;;;;;38.97;4.72;98248.16;10375936;28;20428;-76
2021/04/25 07:51:55;;;;;;;6.28;2.67;;;;;;;34.09;6.90;98245.25;10361936;28;20038;-76
2021/04/25 07:57:15;;;;;;;5.13;2.55;;;;;;;30.30;8.77;98246.28;10375791;28;20071;-78
2021/04/25 08:02:35;;;;;;;;;;;;;;;30.23;9.41;98244.88;10375761;28;20104;-78
2021/04/25 08:07:57;;;;;;;5.88;2.75;;;;;;;28.72;10.36;98252.66;10361580;28;20394;-77
2021/04/25 08:13:17;;;;;;;3.47;2.30;;;;;;;27.33;11.05;98246.00;10375125;28;20046;-80
2021/04/25 08:18:38;;;;;;;5.78;2.20;;;;;;;26.76;11.46;98241.81;10374538;28;20050;-76
2021/04/25 08:23:59;;;;;;;2.67;1.50;;;;;;;29.33;10.61;98250.63;10361507;28;20097;-78
2021/04/25 08:29:19;;;;;;;4.07;1.60;;;;;;;30.29;9.27;98247.72;10377562;28;20041;-80
2021/04/25 08:34:40;;;;;;;4.78;1.70;;;;;;;28.62;9.59;98241.13;10374045;28;20325;-78
2021/04/25 08:40:00;;;;;;;3.95;1.42;;;;;;;27.35;9.86;98246.03;10373562;28;20049;-78
2021/04/25 08:45:21;;;;;;;4.07;1.85;;;;;;;26.65;10.51;98254.56;10373306;28;20069;-78
2021/04/25 08:50:41;;;;;;;4.57;1.92;;;;;;;24.29;11.56;98254.13;10400538;28;20045;-80
2021/04/25 08:56:01;;;;;;;3.85;2.03;;;;;;;22.53;12.79;98257.53;10370190;28;20060;-78
2021/04/25 09:01:22;;;;;;;5.60;1.75;;;;;;;21.33;13.87;98267.31;10385899;28;20041;-75
2021/04/25 09:07:00;;;;;;;4.25;1.90;;;;;;;20.17;15.07;98265.94;10369042;28;20046;-82
2021/04/25 09:12:38;;;;;;;5.35;1.70;;;;;;;18.56;16.04;98268.50;10383780;28;20038;-78
2021/04/25 09:18:05;;;;;;;2.55;1.40;;;;;;;18.43;16.41;98265.75;10346311;28;20042;-78
2021/04/25 09:23:29;;;;;;;6.45;2.03;;;;;;;17.99;16.40;98259.53;10347216;28;20116;-79
2021/04/25 09:29:00;;;;;;;4.25;1.42;;;;;;;20.61;15.51;98258.38;10358061;28;20504;-80
2021/04/25 09:34:29;;;;;;;3.92;1.60;;;;;;;21.86;14.97;98263.31;10350936;28;20069;-80
2021/04/25 09:40:09;;;;;;;2.38;1.13;;;;;;;20.37;15.11;98261.03;10366506;28;20042;-79
2021/04/25 09:45:48;;;;;;;5.13;1.40;;;;;;;19.54;15.61;98260.59;10367532;28;20041;-78
2021/04/25 09:51:22;;;;;;;2.67;1.10;;;;;;;24.59;14.47;98251.19;10353628;28;20045;-79
2021/04/25 09:56:46;;;;;;;4.20;1.25;;;;;;;25.47;11.74;98258.53;10380621;28;20057;-79
2021/04/25 10:02:08;;;;;;;3.70;1.10;;;;;;;23.17;12.76;98260.00;10366698;28;20065;-79
2021/04/25 10:07:34;;;;;;;;;;;;;;;29.30;11.71;98249.22;10353288;28;20037;-79
2021/04/25 10:12:55;;;;;;;2.08;1.33;;;;;;;29.71;8.79;98252.13;10379653;28;19929;-78
2021/04/25 10:18:17;;;;;;;5.47;1.67;;;;;;;27.82;9.63;98260.75;10379735;28;20073;-79
2021/04/25 10:23:38;;;;;;;3.30;1.40;;;;;;;30.52;8.09;98267.81;10352324;28;20503;-77
2021/04/25 10:29:03;;;;;;;2.55;1.30;;;;;;;26.41;9.80;98270.00;10379168;28;20046;-79
2021/04/25 10:34:23;;;;;;;3.30;1.35;;;;;;;24.45;10.80;98262.34;10352037;28;20053;-78
2021/04/25 10:39:51;;;;;;;3.17;1.60;;;;;;;22.24;11.81;98255.25;10378367;28;20049;-80
2021/04/25 10:45:18;;;;;;;3.25;1.13;;;;;;;21.39;12.61;98276.00;10352360;28;20073;-78
2021/04/25 10:50:40;;;;;;;2.35;1.25;;;;;;;23.39;13.59;98257.72;10365421;28;20492;-77
2021/04/25 10:56:30;;;;;;;3.63;1.23;;;;;;;24.49;12.21;98251.00;10365055;28;20405;-78
2021/04/25 11:01:52;;;;;;;4.95;1.70;;;;;;;24.44;12.02;98247.34;10377494;28;20056;-78
2021/04/25 11:07:36;;;;;;;3.03;1.33;;;;;;;22.83;12.41;98266.19;10363862;28;20045;-79
2021/04/25 11:12:57;;;;;;;5.03;1.55;;;;;;;21.59;13.36;98261.75;10364327;28;20050;-78
2021/04/25 11:19:23;;;;;;;3.63;1.42;;;;;;;21.36;14.43;98260.28;10378312;28;20448;-78
2021/04/25 11:24:43;;;;;;;3.25;1.60;;;;;;;21.90;13.60;98258.47;10376071;28;20061;-80
2021/04/25 11:30:03;;;;;;;3.38;1.15;;;;;;;22.38;14.09;98261.34;10362960;28;20041;-79
2021/04/25 11:35:24;;;;;;;3.70;1.42;;;;;;;22.71;13.47;98243.09;10363230;28;20046;-78
2021/04/25 11:40:44;;;;;;;3.40;1.70;;;;;;;22.47;13.00;98243.13;10362519;28;20050;-80
2021/04/25 11:46:04;;;;;;;2.70;1.55;;;;;;;21.18;13.96;98248.28;10362381;28;20046;-79
2021/04/25 11:51:25;;;;;;;5.53;1.73;;;;;;;20.12;14.25;98238.81;10361345;28;20042;-79
2021/04/25 11:56:46;;;;;;;3.25;1.50;;;;;;;19.01;15.08;98247.84;10361801;28;20042;-79
2021/04/25 12:02:07;;;;;;;4.30;1.60;;;;;;;18.16;15.60;98232.78;10376491;28;20480;-78
2021/04/25 12:07:44;;;;;;;3.95;1.83;;;;;;;17.86;15.89;98230.00;10348115;28;20050;-79
2021/04/25 12:13:18;;;;;;;2.25;1.20;;;;;;;18.39;16.54;98237.31;10361497;28;20378;-80
2021/04/25 12:18:41;;;;;;;4.18;1.25;;;;;;;19.57;16.15;98234.59;10374828;28;20377;-78
2021/04/25 12:24:02;;;;;;;2.40;1.55;;;;;;;20.21;15.93;98220.75;10375427;28;20046;-79
2021/04/25 12:29:39;;;;;;;3.95;1.90;;;;;;;19.46;15.86;98215.72;10347293;28;20053;-78
2021/04/25 12:35:03;;;;;;;4.57;1.58;;;;;;;19.18;16.08;98209.63;10360746;28;20448;-79
2021/04/25 12:40:32;;;;;;;3.08;1.55;;;;;;;19.59;16.01;98217.69;10374273;28;20556;-79
2021/04/25 12:45:53;;;;;;;3.45;1.65;;;;;;;20.16;16.01;98197.19;10347469;28;20042;-78
2021/04/25 12:51:40;;;;;;;2.25;1.30;;;;;;;19.88;15.66;98199.69;10373883;28;20049;-79
2021/04/25 12:57:00;;;;;;;4.57;1.83;;;;;;;19.46;16.24;98184.56;10373708;28;20520;-79
2021/04/25 13:02:21;;;;;;;3.30;1.67;;;;;;;18.84;16.09;98186.31;10359262;28;20046;-79
2021/04/25 13:07:44;;;;;;;2.50;1.40;;;;;;;18.29;16.73;98183.91;10359804;28;20045;-78
2021/04/25 13:13:13;;;;;;;3.47;1.63;;;;;;;18.10;16.95;98176.00;10346764;28;20041;-79
2021/04/25 13:18:36;;;;;;;5.28;1.95;;;;;;;17.91;17.31;98185.72;10359713;28;20053;-79
2021/04/25 13:23:56;;;;;;;3.87;1.67;;;;;;;17.83;17.28;98191.00;10359542;28;20045;-80
2021/04/25 13:29:20;;;;;;;4.05;1.40;;;;;;;17.47;17.52;98182.28;10359044;28;20049;-79
2021/04/25 13:34:43;;;;;;;5.93;1.80;;;;;;;16.99;18.14;98189.84;10359947;28;20042;-79
2021/04/25 13:40:05;;;;;;;2.60;1.55;;;;;;;16.76;18.91;98185.16;10373637;28;20444;-78
2021/04/25 13:45:26;;;;;;;2.80;1.60;;;;;;;16.63;18.59;98177.44;10346767;28;20046;-78
2021/04/25 13:50:47;;;;;;;4.60;1.38;;;;;;;16.68;18.72;98162.19;10359537;28;20108;-79
2021/04/25 13:56:07;;;;;;;3.70;1.70;;;;;;;17.03;18.81;98163.91;10359031;28;20103;-79
2021/04/25 14:01:28;;;;;;;3.85;1.92;;;;;;;17.45;18.41;98163.13;10358844;28;20042;-79
2021/04/25 14:06:49;;;;;;;4.57;2.00;;;;;;;17.37;18.40;98162.00;10345199;28;20054;-79
2021/04/25 14:12:10;;;;;;;5.35;1.60;;;;;;;17.37;18.49;98153.53;10345840;28;20088;-79
2021/04/25 14:17:30;;;;;;;3.53;1.23;;;;;;;17.15;18.62;98153.94;10365687;28;20143;-79
2021/04/25 14:22:51;;;;;;;3.28;1.70;;;;;;;17.26;18.63;98155.16;10339134;28;20042;-79
2021/04/25 14:28:11;;;;;;;3.58;1.48;;;;;;;17.71;18.64;98146.00;10365712;28;20057;-79
2021/04/25 14:33:32;;;;;;;3.35;1.50;;;;;;;17.75;18.66;98134.88;10379212;28;20046;-78
2021/04/25 14:39:03;;;;;;;2.97;1.60;;;;;;;17.91;18.63;98141.28;10366671;28;20050;-78
2021/04/25 14:44:24;;;;;;;5.03;2.05;;;;;;;17.80;18.33;98116.78;10351567;28;20038;-80
2021/04/25 14:49:45;;;;;;;4.72;1.85;;;;;;;17.07;18.42;98131.00;10364945;28;20046;-79
2021/04/25 14:55:06;;;;;;;3.55;1.77;;;;;;;16.27;19.15;98137.56;10378554;28;20042;-79
2021/04/25 15:08:59;;;;;;;6.80;2.03;;;;;;;15.34;20.21;98127.69;10300302;28;20501;-79
2021/04/25 15:15:52;;;;;;;5.35;2.10;;;;;;;15.26;20.55;98121.63;10408566;28;20488;-79
2021/04/25 15:23:16;;;;;;;4.55;1.95;;;;;;;14.79;21.27;98129.53;10420503;28;20054;-80
2021/04/25 15:28:39;;;;;;;4.38;2.03;;;;;;;14.94;20.94;98134.59;10421794;28;20041;-79
2021/04/25 15:34:12;;;;;;;3.88;1.52;;;;;;;15.38;21.28;98127.19;10391905;28;20042;-79
2021/04/25 15:40:35;;;;;;;5.05;2.20;;;;;;;15.44;21.67;98131.09;10389358;28;20057;-79
2021/04/25 15:46:57;;;;;;;4.35;1.60;;;;;;;15.39;21.51;98131.47;10399695;28;20049;-79
2021/04/25 15:54:00;;;;;;;3.03;2.00;;;;;;;14.83;21.57;98119.25;10390425;28;20049;-79
2021/04/25 15:59:56;;;;;;;3.75;1.88;;;;;;;14.32;21.99;98124.00;10409961;28;20049;-80
2021/04/25 16:05:52;;;;;;;4.18;2.15;;;;;;;14.13;22.35;98130.59;10417108;28;20057;-80
2021/04/25 16:12:48;;;;;;;6.70;2.35;;;;;;;14.24;22.51;98124.25;10450998;28;20053;-79
2021/04/25 16:18:40;;;;;;;3.58;1.92;;;;;;;14.24;22.81;98145.97;10459617;28;20045;-79
2021/04/25 16:24:28;;;;;;;3.55;2.03;;;;;;;13.80;23.24;98147.56;10438873;28;20431;-79
2021/04/25 16:30:18;;;;;;;6.35;1.90;;;;;;;13.37;24.23;98152.59;10438244;28;20072;-79
2021/04/25 16:38:13;;;;;;;5.18;2.20;;;;;;;13.06;24.74;98161.84;10466119;28;20415;-79
2021/04/25 16:43:34;;;;;;;2.97;2.10;;;;;;;12.79;25.39;98170.59;10445581;28;20372;-78
2021/04/25 16:49:24;;;;;;;5.07;2.30;;;;;;;12.60;26.24;98176.34;10438210;28;20095;-79
2021/04/25 16:55:16;;;;;;;5.03;2.17;;;;;;;12.36;27.87;98186.66;10437755;28;20407;-79
2021/04/25 17:01:08;;;;;;;5.05;2.17;;;;;;;12.01;27.35;98189.91;10438264;28;20086;-79
2021/04/25 17:06:30;;;;;;;5.10;2.33;;;;;;;11.87;28.22;98202.16;10416527;28;20092;-79
2021/04/25 17:12:26;;;;;;;6.03;2.42;;;;;;;11.66;29.73;98197.91;10427505;28;20086;-78
2021/04/25 17:18:54;;;;;;;4.82;2.30;;;;;;;11.40;30.40;98190.47;10437244;28;20053;-79
2021/04/25 17:24:45;;;;;;;5.45;2.13;;;;;;;11.30;30.96;98192.56;10447658;28;20049;-79
2021/04/25 17:30:34;;;;;;;4.93;2.40;;;;;;;11.11;30.35;98201.69;10436982;28;20049;-79
2021/04/25 17:36:58;;;;;;;3.50;2.00;;;;;;;10.77;31.03;98211.06;10428378;28;20053;-79
2021/04/25 17:42:19;;;;;;;8.95;1.98;;;;;;;10.47;31.02;98215.84;10443774;28;20373;-80
2021/04/25 17:47:40;;;;;;;4.78;2.05;;;;;;;10.29;31.68;98222.81;10442934;28;20048;-79
2021/04/25 17:53:01;;;;;;;4.40;2.10;;;;;;;9.99;32.48;98224.75;10437334;28;20041;-79
2021/04/25 17:58:50;;;;;;;4.78;2.55;;;;;;;9.68;32.73;98240.41;10445791;28;20057;-80
2021/04/25 18:04:11;;;;;;;5.20;1.83;;;;;;;9.54;33.07;98244.84;10436205;28;20052;-80
2021/04/25 18:10:01;;;;;;;4.90;2.30;;;;;;;9.34;34.72;98255.13;10443369;28;20056;-79
2021/04/25 18:15:59;;;;;;;4.80;1.95;;;;;;;9.12;34.17;98254.06;10443317;28;20045;-79
2021/04/25 18:22:23;;;;;;;5.47;1.95;;;;;;;8.92;36.19;98255.22;10433693;28;20049;-79
2021/04/25 18:28:12;;;;;;;5.68;1.77;;;;;;;8.62;36.82;98259.75;10452871;28;20435;-79
2021/04/25 18:35:12;;;;;;;2.92;1.77;;;;;;;8.49;36.71;98282.28;10379389;28;20037;-78
2021/04/25 18:41:04;;;;;;;3.42;1.65;;;;;;;8.47;36.76;98287.69;10351438;28;20054;-79
2021/04/25 18:47:31;;;;;;;4.25;1.90;;;;;;;8.50;38.51;98295.66;10348463;28;20046;-78
2021/04/25 18:53:20;;;;;;;8.20;2.88;;;;;;;8.44;37.02;98303.47;10442126;28;20049;-79
2021/04/25 18:59:10;;;;;;;6.65;3.00;;;;;;;8.35;38.67;98314.50;10443182;28;20053;-80
2021/04/25 19:05:06;;;;;;;6.68;2.95;;;;;;;8.30;38.50;98308.56;10448351;28;20468;-79
2021/04/25 19:10:54;;;;;;;4.82;2.75;;;;;;;8.15;38.13;98319.78;10461523;28;20116;-79
2021/04/25 19:16:14;;;;;;;5.95;2.50;;;;;;;8.06;38.47;98317.59;10434069;28;20387;-76
2021/04/25 19:21:35;;;;;;;4.88;2.55;;;;;;;8.07;39.86;98326.69;10432856;28;20517;-76
2021/04/25 19:26:56;;;;;;;4.97;2.53;;;;;;;8.07;39.49;98332.22;10433923;28;20380;-74
2021/04/25 19:32:16;;;;;;;7.18;2.33;;;;;;;8.13;40.67;98344.63;10433062;28;20045;-77
2021/04/25 19:37:38;;;;;;;7.55;2.55;;;;;;;8.06;41.56;98348.19;10419438;28;20055;-74
2021/04/25 19:42:58;;;;;;;4.55;2.60;;;;;;;7.96;40.68;98358.41;10432399;28;20033;-75
2021/04/25 19:48:21;;;;;;;5.78;2.40;;;;;;;7.91;41.21;98360.13;10431752;28;20087;-75
2021/04/25 19:53:42;;;;;;;5.70;2.28;;;;;;;7.87;40.90;98340.28;10419071;28;20044;-76
2021/04/25 19:59:02;;;;;;;4.55;2.17;;;;;;;7.72;41.31;98349.44;10431151;28;20159;-75
2021/04/25 20:04:22;;;;;;;4.13;2.05;;;;;;;7.46;42.17;98347.84;10443999;28;20045;-74
2021/04/25 20:09:43;;;;;;;5.32;2.40;;;;;;;7.24;43.30;98356.22;10415590;28;20068;-75
2021/04/25 20:15:04;;;;;;;4.88;2.10;;;;;;;6.96;44.30;98369.03;10428613;28;20559;-75
2021/04/25 20:20:27;;;;;;;5.13;2.13;;;;;;;6.79;43.23;98366.06;10415362;28;20044;-75
2021/04/25 20:25:49;;;;;;;4.60;2.00;;;;;;;6.58;43.49;98369.00;10415462;28;20048;-74
2021/04/25 20:31:09;;;;;;;4.30;2.30;;;;;;;6.44;44.48;98362.88;10442481;28;20037;-74
2021/04/25 20:36:29;;;;;;;5.20;2.05;;;;;;;6.32;45.23;98356.19;10429550;28;20385;-77
2021/04/25 20:41:50;;;;;;;4.35;2.33;;;;;;;6.26;45.43;98355.63;10417785;28;20044;-79
2021/04/25 20:47:10;;;;;;;11.82;7.45;;;;;;;6.10;45.82;98354.84;10445215;28;20044;-77
2021/04/25 20:52:30;;;;;;;7.55;4.38;;;;;;;5.97;46.22;98347.41;10417228;28;20045;-78
2021/04/25 20:57:52;;;;;;;12.93;3.95;;;;;;;5.89;46.67;98362.53;10444075;28;20045;-79
2021/04/25 21:03:14;;;;;;;8.90;2.70;;;;;;;5.78;47.02;98358.03;10429028;28;20045;-77
2021/04/25 21:08:38;;;;;;;2.83;2.00;;;;;;;5.72;47.20;98363.00;10441838;28;20055;-77
2021/04/25 21:13:59;;;;;;;3.25;2.10;;;;;;;5.59;48.00;98365.88;10449675;28;20078;-77
2021/04/25 21:19:20;;;;;;;5.10;2.70;;;;;;;5.47;47.98;98362.69;10440303;28;20048;-76
2021/04/25 21:24:40;;;;;;;3.97;2.35;;;;;;;5.34;48.95;98355.22;10438206;28;20040;-77
2021/04/25 21:30:01;;;;;;;4.40;2.50;;;;;;;5.28;48.97;98356.66;10444072;28;20403;-77
2021/04/25 21:35:21;;;;;;;3.17;1.63;;;;;;;5.19;49.62;98360.66;10443737;28;20040;-78
2021/04/25 21:40:42;;;;;;;4.03;1.83;;;;;;;5.13;49.69;98362.84;10443458;28;20052;-77
2021/04/25 21:46:03;;;;;;;4.97;2.13;;;;;;;5.10;50.45;98361.16;10416753;28;20049;-77
2021/04/25 21:51:24;;;;;;;3.38;2.20;;;;;;;5.05;50.33;98360.03;10443737;28;20048;-77
2021/04/25 21:56:44;;;;;;;4.97;2.00;;;;;;;4.98;50.55;98357.19;10443249;28;20045;-77
2021/04/25 22:02:04;;;;;;;4.38;1.98;;;;;;;4.98;51.29;98351.66;10429228;28;20049;-77
2021/04/25 22:07:25;;;;;;;6.97;1.83;;;;;;;4.94;51.28;98356.81;10462515;28;20044;-77
2021/04/25 22:12:46;;;;;;;3.88;1.67;;;;;;;4.85;51.75;98342.16;10484758;28;20050;-77
2021/04/25 22:18:06;;;;;;;2.75;1.63;;;;;;;4.79;51.98;98344.31;10470429;28;20068;-77
2021/04/25 22:23:27;;;;;;;3.25;1.70;;;;;;;4.70;51.86;98342.03;10498250;28;20040;-77
2021/04/25 22:28:47;;;;;;;3.80;1.98;;;;;;;4.67;52.13;98339.63;10497646;28;20040;-77
2021/04/25 22:34:08;;;;;;;3.17;1.52;;;;;;;4.61;52.69;98336.97;10482604;28;20395;-77
2021/04/25 22:39:28;;;;;;;2.72;1.70;;;;;;;4.56;52.81;98332.34;10477461;28;20040;-77
2021/04/25 22:44:49;;;;;;;3.38;2.00;;;;;;;4.52;53.04;98323.63;10490824;28;20040;-77
2021/04/25 22:50:10;;;;;;;3.50;1.95;;;;;;;4.45;53.14;98322.31;10490874;28;20414;-77
2021/04/25 22:55:31;;;;;;;5.72;2.30;;;;;;;4.43;53.01;98322.06;10464467;28;20048;-77
2021/04/25 23:00:53;;;;;;;3.75;1.90;;;;;;;4.39;53.45;98327.22;10492081;28;20056;-77
2021/04/25 23:06:14;;;;;;;2.90;1.80;;;;;;;4.31;53.43;98321.59;10476840;28;20064;-77
2021/04/25 23:11:34;;;;;;;4.28;1.77;;;;;;;4.20;53.83;98324.63;10463538;28;20037;-77
2021/04/25 23:16:55;;;;;;;2.58;1.38;;;;;;;4.13;54.20;98311.47;10476184;28;20441;-77
2021/04/25 23:22:15;;;;;;;3.75;2.03;;;;;;;4.06;54.31;98303.13;10490239;28;20071;-78
2021/04/25 23:27:36;;;;;;;4.35;1.80;;;;;;;4.07;54.30;98307.38;10475834;28;20049;-77
2021/04/25 23:32:56;;;;;;;3.25;1.73;;;;;;;4.07;54.59;98307.38;10461869;28;20045;-77
2021/04/25 23:38:17;;;;;;;5.50;1.63;;;;;;;4.07;55.06;98301.84;10489742;28;20049;-77
2021/04/25 23:43:37;;;;;;;4.57;2.30;;;;;;;4.03;54.65;98299.41;10475439;28;20123;-77
2021/04/25 23:48:58;;;;;;;6.07;4.82;;;;;;;4.00;54.72;98281.16;10487924;28;20090;-77
2021/04/25 23:54:18;;;;;;;8.38;4.60;;;;;;;3.95;55.69;98276.47;10474583;28;20044;-77
2021/04/25 23:59:39;;;;;;;10.13;6.60;;;;;;;3.90;55.69;98280.13;10475217;28;20044;-76
